createdAt,value
2022-08-10T00:02:26.278Z,3.40
2022-08-10T00:04:53.749Z,4.30
2022-08-10T00:07:21.073Z,3.78
2022-08-10T00:09:51.329Z,3.65
2022-08-10T00:12:22.297Z,4.35
2022-08-10T00:15:11.832Z,4.20
2022-08-10T00:17:59.176Z,4.28
2022-08-10T00:20:26.607Z,3.80
2022-08-10T00:22:57.778Z,3.97
2022-08-10T00:25:26.076Z,3.70
2022-08-10T00:28:03.532Z,3.80
2022-08-10T00:30:31.519Z,3.90
2022-08-10T00:32:58.898Z,3.55
2022-08-10T00:35:26.508Z,4.13
2022-08-10T00:37:56.502Z,3.67
2022-08-10T00:40:36.853Z,3.70
2022-08-10T00:43:08.494Z,3.42
2022-08-10T00:45:36.700Z,3.60
2022-08-10T00:48:04.608Z,4.03
2022-08-10T00:50:32.261Z,3.35
2022-08-10T00:52:59.952Z,3.55
2022-08-10T00:55:28.320Z,3.92
2022-08-10T00:57:56.926Z,3.63
2022-08-10T01:00:25.215Z,3.27
2022-08-10T01:02:53.615Z,3.78
2022-08-10T01:05:22.430Z,3.92
2022-08-10T01:07:55.959Z,3.90
2022-08-10T01:10:23.323Z,3.90
2022-08-10T01:13:00.173Z,3.80
2022-08-10T01:15:45.871Z,3.58
2022-08-10T01:18:34.774Z,3.95
2022-08-10T01:21:26.185Z,3.55
2022-08-10T01:24:02.609Z,4.55
2022-08-10T01:26:30.963Z,4.60
2022-08-10T01:29:35.730Z,4.10
2022-08-10T01:32:09.001Z,4.25
2022-08-10T01:34:53.353Z,3.42
2022-08-10T01:37:27.000Z,4.30
2022-08-10T01:39:59.203Z,3.80
2022-08-10T01:42:28.779Z,3.53
2022-08-10T01:44:57.746Z,3.90
2022-08-10T01:47:49.826Z,3.75
2022-08-10T01:50:27.070Z,3.30
2022-08-10T01:53:05.377Z,3.75
2022-08-10T01:55:34.125Z,3.45
2022-08-10T01:58:05.875Z,3.60
2022-08-10T02:00:36.344Z,3.60
2022-08-10T02:03:07.389Z,3.80
2022-08-10T02:05:37.536Z,4.10
2022-08-10T02:08:08.710Z,3.95
2022-08-10T02:10:39.844Z,3.25
2022-08-10T02:13:14.912Z,3.65
2022-08-10T02:16:01.174Z,3.72
2022-08-10T02:18:30.943Z,3.65
2022-08-10T02:21:00.626Z,3.30
2022-08-10T02:23:31.678Z,4.22
2022-08-10T02:26:00.621Z,4.03
2022-08-10T02:28:31.325Z,3.40
2022-08-10T02:31:12.123Z,3.63
2022-08-10T02:33:56.392Z,3.50
2022-08-10T02:36:29.811Z,3.30
2022-08-10T02:39:02.218Z,3.80
2022-08-10T02:45:01.822Z,3.70
2022-08-10T02:45:29.177Z,4.10
2022-08-10T02:47:51.464Z,3.80
2022-08-10T02:50:29.532Z,3.83
2022-08-10T02:53:05.377Z,3.85
2022-08-10T02:55:52.986Z,3.80
2022-08-10T02:58:44.951Z,3.58
2022-08-10T03:01:18.961Z,3.50
2022-08-10T03:03:53.299Z,4.10
2022-08-10T03:06:25.373Z,4.20
2022-08-10T03:08:55.530Z,3.70
2022-08-10T03:12:35.995Z,4.00
2022-08-10T03:14:17.438Z,4.50
2022-08-10T03:16:46.619Z,4.25
2022-08-10T03:20:33.546Z,4.05
2022-08-10T03:22:05.547Z,4.18
2022-08-10T03:24:35.162Z,4.35
2022-08-10T03:27:04.629Z,4.15
2022-08-10T03:30:29.918Z,3.95
2022-08-10T03:32:23.652Z,3.58
2022-08-10T03:34:52.507Z,4.93
2022-08-10T03:37:20.448Z,4.38
2022-08-10T03:39:47.985Z,4.07
2022-08-10T03:42:16.647Z,4.20
2022-08-10T03:44:50.255Z,4.33
2022-08-10T03:47:20.433Z,3.85
2022-08-10T03:49:50.001Z,3.50
2022-08-10T03:52:19.754Z,3.10
2022-08-10T03:54:47.694Z,3.20
2022-08-10T03:57:15.355Z,3.58
2022-08-10T03:59:42.999Z,3.20
2022-08-10T04:02:45.116Z,3.85
2022-08-10T04:04:58.058Z,3.70
2022-08-10T04:07:25.916Z,3.67
2022-08-10T04:09:56.452Z,4.10
2022-08-10T04:12:26.469Z,4.70
2022-08-10T04:14:54.453Z,5.15
2022-08-10T04:18:03.292Z,5.07
2022-08-10T04:20:29.990Z,4.40
2022-08-10T04:23:06.838Z,5.15
2022-08-10T04:25:35.705Z,6.20
2022-08-10T04:28:03.916Z,5.47
2022-08-10T04:30:32.948Z,5.03
2022-08-10T04:33:02.704Z,4.75
2022-08-10T04:35:32.544Z,4.68
2022-08-10T04:38:02.396Z,4.57
2022-08-10T04:40:31.347Z,4.45
2022-08-10T04:43:10.911Z,4.82
2022-08-10T04:45:49.889Z,4.53
2022-08-10T04:48:40.723Z,4.53
2022-08-10T04:51:10.743Z,3.83
2022-08-10T04:54:05.222Z,3.73
2022-08-10T04:56:32.708Z,4.10
2022-08-10T04:59:01.211Z,3.40
2022-08-10T05:02:30.402Z,3.50
2022-08-10T05:04:35.841Z,3.58
2022-08-10T05:07:07.182Z,5.03
2022-08-10T05:10:01.015Z,3.90
2022-08-10T05:12:22.208Z,3.53
2022-08-10T05:14:52.249Z,2.90
2022-08-10T05:17:22.295Z,2.50
2022-08-10T05:20:02.822Z,2.28
2022-08-10T05:22:33.797Z,2.17
2022-08-10T05:25:01.224Z,2.03
2022-08-10T05:27:28.703Z,2.22
2022-08-10T05:30:02.590Z,2.17
2022-08-10T05:32:32.179Z,2.00
2022-08-10T05:34:59.663Z,2.08
2022-08-10T05:38:08.898Z,2.20
2022-08-10T05:40:17.268Z,2.53
2022-08-10T05:42:44.752Z,3.55
2022-08-10T05:45:23.811Z,2.90
2022-08-10T05:48:41.801Z,3.25
2022-08-10T05:50:39.317Z,2.05
2022-08-10T05:53:58.921Z,1.80
2022-08-10T05:55:55.004Z,1.85
2022-08-10T05:58:22.801Z,1.65
2022-08-10T06:00:56.228Z,1.57
2022-08-10T06:03:34.145Z,2.28
2022-08-10T06:06:02.701Z,2.25
2022-08-10T06:08:33.363Z,1.70
2022-08-10T06:12:24.611Z,1.70
2022-08-10T06:14:14.732Z,1.80
2022-08-10T06:16:50.328Z,1.65
2022-08-10T06:19:18.232Z,1.50
2022-08-10T06:21:46.843Z,1.77
2022-08-10T06:25:04.589Z,1.50
2022-08-10T06:27:34.584Z,1.73
2022-08-10T06:30:02.942Z,1.50
2022-08-10T06:32:49.943Z,1.35
2022-08-10T06:35:18.482Z,1.20
2022-08-10T06:37:50.745Z,1.58
2022-08-10T06:40:20.660Z,1.40
2022-08-10T06:42:50.351Z,1.50
2022-08-10T06:45:22.009Z,1.50
2022-08-10T06:48:00.913Z,1.60
2022-08-10T06:50:58.751Z,1.30
2022-08-10T06:53:53.465Z,1.48
2022-08-10T06:56:37.778Z,2.00
2022-08-10T06:59:28.226Z,1.58
2022-08-10T07:02:19.388Z,1.33
2022-08-10T07:04:52.231Z,1.48
2022-08-10T07:07:23.228Z,1.98
2022-08-10T07:09:55.366Z,1.88
2022-08-10T07:12:24.420Z,1.27
2022-08-10T07:14:53.622Z,1.17
2022-08-10T07:17:24.630Z,1.63
2022-08-10T07:19:55.836Z,1.52
2022-08-10T07:23:55.206Z,2.17
2022-08-10T07:25:17.189Z,1.00
2022-08-10T07:27:59.686Z,1.33
2022-08-10T07:30:30.538Z,1.13
2022-08-10T07:32:59.283Z,1.30
2022-08-10T07:35:30.877Z,1.20
2022-08-10T07:38:04.796Z,1.35
2022-08-10T07:40:34.019Z,1.00
2022-08-10T07:43:02.583Z,0.85
2022-08-10T07:45:33.806Z,0.83
2022-08-10T07:48:29.131Z,0.73
2022-08-10T07:51:02.244Z,1.70
2022-08-10T07:53:38.780Z,5.63
2022-08-10T07:56:26.028Z,0.70
2022-08-10T07:59:00.086Z,0.77
2022-08-10T08:01:32.107Z,1.40
2022-08-10T08:04:05.689Z,1.88
2022-08-10T08:06:41.288Z,1.80
2022-08-10T08:09:09.537Z,1.90
2022-08-10T08:11:38.342Z,1.50
2022-08-10T08:14:08.369Z,1.50
2022-08-10T08:16:38.838Z,1.50
2022-08-10T08:19:27.062Z,1.80
2022-08-10T08:24:05.153Z,2.03
2022-08-10T08:24:45.144Z,1.63
2022-08-10T08:27:17.061Z,1.52
2022-08-10T08:29:50.328Z,1.30
2022-08-10T08:32:23.904Z,1.30
2022-08-10T08:35:00.143Z,1.20
2022-08-10T08:38:31.200Z,1.13
2022-08-10T08:40:24.442Z,1.10
2022-08-10T08:42:57.962Z,0.93
2022-08-10T08:45:36.202Z,0.70
2022-08-10T08:48:47.171Z,0.80
2022-08-10T08:52:06.165Z,1.10
2022-08-10T08:54:46.819Z,0.60
2022-08-10T08:57:49.177Z,0.75
2022-08-10T09:00:43.913Z,0.75
2022-08-10T09:03:33.181Z,0.60
2022-08-10T09:06:16.429Z,0.57
2022-08-10T09:09:20.672Z,0.60
2022-08-10T09:12:09.433Z,0.80
2022-08-10T09:14:50.589Z,0.80
2022-08-10T09:17:41.574Z,0.60
2022-08-10T09:20:33.970Z,1.10
2022-08-10T09:23:20.501Z,0.70
2022-08-10T09:26:04.124Z,0.90
2022-08-10T09:28:37.441Z,1.00
2022-08-10T09:31:22.514Z,0.95
2022-08-10T09:36:25.390Z,1.00
2022-08-10T09:38:01.869Z,14.43
2022-08-10T09:40:58.845Z,1.00
2022-08-10T09:43:52.648Z,1.10
2022-08-10T09:46:22.829Z,1.10
2022-08-10T09:49:08.344Z,1.30
2022-08-10T09:52:06.502Z,1.33
2022-08-10T09:54:40.625Z,1.48
2022-08-10T09:57:44.486Z,1.23
2022-08-10T10:00:16.466Z,1.38
2022-08-10T10:02:55.493Z,2.00
2022-08-10T10:05:50.306Z,1.50
2022-08-10T10:08:43.116Z,1.25
2022-08-10T10:14:16.273Z,1.00
2022-08-10T10:16:55.385Z,1.00
2022-08-10T10:22:28.183Z,1.40
2022-08-10T10:25:51.658Z,0.70
2022-08-10T10:28:21.235Z,0.80
2022-08-10T10:31:19.305Z,0.90
2022-08-10T10:34:07.762Z,1.73
2022-08-10T10:36:36.300Z,1.27
2022-08-10T10:39:04.792Z,1.23
2022-08-10T10:42:44.118Z,0.93
2022-08-10T10:45:24.433Z,1.40
